Flight Track Log - Related Links

Times and Time Zones

All times are in EDT time to prevent confusion due to time zone crossing. See the SKW5607 flight status page for this flight to view local times or setup timezone preferences in your user account.

Time Position Orientation Groundspeed Altitude Reporting Facility
EDT Latitude Longitude Course Direction KTS MPH feet Rate Location/Type
Tue 02:14:02 AM 37.6389 -122.3553 360° North 161 185 900  Level Oakland Center
Tue 02:15:03 AM 37.6869 -122.3267 25° Northeast 190 219 2,500 1,934 Climbing Oakland Center
Tue 02:16:00 AM 37.9794 -122.3833 North  Level FlightAware Approximate
Tue 02:16:03 AM 37.7478 -122.3417 349° North 224 258 4,800  Level Oakland Center
Tue 02:17:00 AM 38.1051 -122.3833 North  Level FlightAware Approximate
Tue 02:17:04 AM 37.8097 -122.3694 340° North 235 270 6,900  Level Oakland Center
Tue 02:18:00 AM 38.2309 -122.3833 North  Level FlightAware Approximate
Tue 02:18:04 AM 37.8794 -122.3697 360° North 254 292 9,000  Level Oakland Center
Tue 02:19:00 AM 38.3567 -122.3833 360° North  Level FlightAware Approximate
Tue 02:19:04 AM 37.9522 -122.3661 North 264 304 10,700  Level Oakland Center
Tue 02:20:05 AM 38.0322 -122.3739 356° North 289 333 12,100 1,537 Climbing Oakland Center
Tue 02:21:05 AM 38.1211 -122.3842 355° North 321 369 13,800 1,736 Climbing Oakland Center
Tue 02:22:06 AM 38.2108 -122.3944 355° North 327 376 15,600 1,884 Climbing Oakland Center
Tue 02:23:06 AM 38.3233 -122.4064 355° North 338 389 17,600 1,636 Climbing Oakland Center
Tue 02:24:07 AM 38.4219 -122.4178 355° North 354 407 18,900 1,289 Climbing Oakland Center
Tue 02:25:07 AM 38.5222 -122.4292 355° North 363 418 20,200 1,350 Climbing Oakland Center
Tue 02:26:07 AM 38.6250 -122.4400 355° North 369 425 21,600 1,041 Climbing Oakland Center
Tue 02:27:08 AM 38.7267 -122.4508 355° North 376 433 22,300 694 Climbing Oakland Center
Tue 02:28:08 AM 38.8350 -122.4633 355° North 386 444 23,000 900 Climbing Oakland Center
Tue 02:29:08 AM 38.9453 -122.4747 355° North 393 452 24,100 843 Climbing Oakland Center
Tue 02:30:09 AM 39.0583 -122.4861 356° North 403 464 24,700 545 Climbing Oakland Center
Tue 02:31:09 AM 39.1767 -122.5000 355° North 419 482 25,200 496 Climbing Oakland Center
Tue 02:32:10 AM 39.2983 -122.5150 355° North 432 497 25,700 496 Climbing Oakland Center
Tue 02:33:10 AM 39.4228 -122.5275 356° North 444 511 26,200 496 Climbing Oakland Center
Tue 02:34:11 AM 39.5375 -122.5411 355° North 453 521 26,700 496 Climbing Oakland Center
Tue 02:35:11 AM 39.6656 -122.5547 355° North 460 529 27,200 550 Climbing Oakland Center
Tue 02:36:11 AM 39.8178 -122.5714 355° North 462 532 27,800 397 Climbing Oakland Center
Tue 02:37:12 AM 39.9467 -122.5878 354° North 461 531 28,000 99 Climbing Oakland Center
Tue 02:38:12 AM 40.0536 -122.5997 355° North 469 540 28,000  Level Oakland Center
Tue 02:39:13 AM 40.1883 -122.6158 355° North 477 549 28,000  Level Oakland Center
Tue 02:40:13 AM 40.3200 -122.6286 356° North 472 543 28,000  Level Oakland Center
Tue 02:41:13 AM 40.4514 -122.6433 355° North 470 541 28,000  Level Oakland Center
Tue 02:42:14 AM 40.5836 -122.6589 355° North 476 548 28,000  Level Oakland Center
Tue 02:43:14 AM 40.7158 -122.6747 355° North 477 549 28,000  Level Oakland Center
Tue 02:44:15 AM 40.8492 -122.6900 355° North 481 554 28,000  Level Oakland Center
Tue 02:45:15 AM 40.9831 -122.7056 355° North 483 556 28,000  Level Oakland Center
Tue 02:46:15 AM 41.1428 -122.7247 355° North 481 554 28,000 -923 Level Oakland Center
Tue 02:47:12 AM 41.2494 -122.7397 354° North 481 554 26,200 -2,051 Descending Seattle Center
Tue 02:48:12 AM 41.3792 -122.7547 355° North 471 542 24,000 -2,300 Descending Seattle Center
Tue 02:49:12 AM 41.5156 -122.7706 355° North 441 507 21,600 -2,876 Descending Seattle Center
Tue 02:50:13 AM 41.6356 -122.7844 355° North 434 499 18,200 -3,421 Descending Seattle Center
Tue 02:51:13 AM 41.7553 -122.7969 356° North 429 494 14,700 -3,300 Descending Seattle Center
Tue 02:52:13 AM 41.8675 -122.8097 355° North 404 465 11,600 -2,350 Descending Seattle Center
Tue 02:53:13 AM 41.9686 -122.8228 355° North 370 426 10,000 -793 Descending Seattle Center
Tue 02:54:14 AM 42.0628 -122.8336 355° North 341 392 10,000 -298 Level Seattle Center
Tue 02:55:14 AM 42.1483 -122.8367 358° North 299 344 9,400 -900 Descending Seattle Center
Tue 02:56:14 AM 42.2072 -122.8086 19° North 221 254 8,200 -1,200 Descending Seattle Center

Login

Don't have an account? Register now (free) for customized features, flight alerts, and more!